sensor_id;sensor_type;location;lat;lon;timestamp;pressure;altitude;pressure_sealevel;temperature;humidity
76166;BME280;65085;46.718;20.136;2023-02-02T00:02:23;100660.84;;;2.98;81.65
76166;BME280;65085;46.718;20.136;2023-02-02T00:05:26;100661.00;;;2.93;82.23
76166;BME280;65085;46.718;20.136;2023-02-02T00:08:30;100653.28;;;3.00;82.07
76166;BME280;65085;46.718;20.136;2023-02-02T00:11:33;100654.97;;;3.13;81.33
76166;BME280;65085;46.718;20.136;2023-02-02T00:14:35;100645.63;;;3.19;81.37
76166;BME280;65085;46.718;20.136;2023-02-02T00:17:38;100657.97;;;3.11;81.86
76166;BME280;65085;46.718;20.136;2023-02-02T00:20:41;100659.19;;;3.31;81.09
76166;BME280;65085;46.718;20.136;2023-02-02T00:23:45;100662.78;;;3.34;80.65
76166;BME280;65085;46.718;20.136;2023-02-02T00:26:51;100656.81;;;3.29;81.19
76166;BME280;65085;46.718;20.136;2023-02-02T00:29:54;100650.69;;;3.20;81.85
76166;BME280;65085;46.718;20.136;2023-02-02T00:32:59;100647.84;;;3.17;81.96
76166;BME280;65085;46.718;20.136;2023-02-02T00:36:02;100647.41;;;3.06;82.45
76166;BME280;65085;46.718;20.136;2023-02-02T00:39:07;100651.38;;;2.92;82.68
76166;BME280;65085;46.718;20.136;2023-02-02T00:42:10;100640.06;;;2.69;83.38
76166;BME280;65085;46.718;20.136;2023-02-02T00:45:13;100654.91;;;2.67;83.39
76166;BME280;65085;46.718;20.136;2023-02-02T00:48:20;100661.06;;;2.59;83.62
76166;BME280;65085;46.718;20.136;2023-02-02T00:51:22;100669.09;;;2.50;84.45
76166;BME280;65085;46.718;20.136;2023-02-02T00:54:27;100681.88;;;2.45;84.37
76166;BME280;65085;46.718;20.136;2023-02-02T00:57:29;100667.53;;;2.41;84.19
76166;BME280;65085;46.718;20.136;2023-02-02T01:00:32;100643.88;;;2.43;84.12
76166;BME280;65085;46.718;20.136;2023-02-02T01:03:35;100622.72;;;2.67;82.92
76166;BME280;65085;46.718;20.136;2023-02-02T01:06:38;100616.81;;;2.90;81.50
76166;BME280;65085;46.718;20.136;2023-02-02T01:09:44;100622.72;;;3.21;80.53
76166;BME280;65085;46.718;20.136;2023-02-02T01:12:47;100626.91;;;3.39;79.62
76166;BME280;65085;46.718;20.136;2023-02-02T01:15:54;100628.31;;;3.53;78.60
76166;BME280;65085;46.718;20.136;2023-02-02T01:18:57;100617.88;;;3.52;78.75
76166;BME280;65085;46.718;20.136;2023-02-02T01:22:00;100624.59;;;3.66;78.45
76166;BME280;65085;46.718;20.136;2023-02-02T01:25:07;100626.78;;;3.73;78.03
76166;BME280;65085;46.718;20.136;2023-02-02T01:28:09;100600.78;;;3.85;77.76
76166;BME280;65085;46.718;20.136;2023-02-02T01:31:16;100608.19;;;3.88;77.15
76166;BME280;65085;46.718;20.136;2023-02-02T01:34:19;100583.94;;;3.97;76.84
76166;BME280;65085;46.718;20.136;2023-02-02T01:37:22;100583.88;;;4.05;76.37
76166;BME280;65085;46.718;20.136;2023-02-02T01:40:27;100580.91;;;3.98;76.82
76166;BME280;65085;46.718;20.136;2023-02-02T01:43:49;100573.66;;;3.99;76.61
76166;BME280;65085;46.718;20.136;2023-02-02T01:46:54;100562.63;;;3.92;76.96
76166;BME280;65085;46.718;20.136;2023-02-02T01:49:57;100549.88;;;3.89;76.79
76166;BME280;65085;46.718;20.136;2023-02-02T01:53:01;100550.63;;;3.89;76.37
76166;BME280;65085;46.718;20.136;2023-02-02T01:56:11;100543.78;;;3.80;76.76
76166;BME280;65085;46.718;20.136;2023-02-02T01:59:16;100539.84;;;3.77;76.70
76166;BME280;65085;46.718;20.136;2023-02-02T02:02:19;100531.19;;;3.72;76.77
76166;BME280;65085;46.718;20.136;2023-02-02T02:05:26;100522.78;;;3.73;77.05
76166;BME280;65085;46.718;20.136;2023-02-02T02:08:36;100520.31;;;3.68;76.67
76166;BME280;65085;46.718;20.136;2023-02-02T02:11:42;100521.22;;;3.72;76.17
76166;BME280;65085;46.718;20.136;2023-02-02T02:14:46;100524.22;;;3.71;76.43
76166;BME280;65085;46.718;20.136;2023-02-02T02:18:22;100535.03;;;3.62;76.72
76166;BME280;65085;46.718;20.136;2023-02-02T02:21:42;100548.22;;;3.76;76.36
76166;BME280;65085;46.718;20.136;2023-02-02T02:25:23;100541.25;;;3.75;76.03
76166;BME280;65085;46.718;20.136;2023-02-02T02:29:07;100555.94;;;3.77;76.01
76166;BME280;65085;46.718;20.136;2023-02-02T02:32:22;100562.72;;;3.83;75.44
76166;BME280;65085;46.718;20.136;2023-02-02T02:35:32;100566.16;;;4.04;74.09
76166;BME280;65085;46.718;20.136;2023-02-02T02:38:45;100574.81;;;4.10;74.21
76166;BME280;65085;46.718;20.136;2023-02-02T02:41:54;100573.78;;;4.23;73.58
76166;BME280;65085;46.718;20.136;2023-02-02T02:45:17;100563.00;;;4.43;71.54
76166;BME280;65085;46.718;20.136;2023-02-02T02:48:23;100562.69;;;4.45;71.59
76166;BME280;65085;46.718;20.136;2023-02-02T02:51:44;100552.75;;;4.57;70.76
76166;BME280;65085;46.718;20.136;2023-02-02T02:54:54;100536.59;;;4.57;70.68
76166;BME280;65085;46.718;20.136;2023-02-02T02:58:03;100552.44;;;4.71;69.96
76166;BME280;65085;46.718;20.136;2023-02-02T03:01:13;100546.38;;;4.74;69.85
76166;BME280;65085;46.718;20.136;2023-02-02T03:04:23;100546.19;;;4.79;69.51
76166;BME280;65085;46.718;20.136;2023-02-02T03:07:34;100539.91;;;4.87;69.36
76166;BME280;65085;46.718;20.136;2023-02-02T03:10:43;100538.03;;;4.87;70.01
76166;BME280;65085;46.718;20.136;2023-02-02T03:13:47;100537.34;;;4.90;69.64
76166;BME280;65085;46.718;20.136;2023-02-02T03:16:51;100539.91;;;4.99;69.23
76166;BME280;65085;46.718;20.136;2023-02-02T03:19:55;100536.22;;;4.91;69.65
76166;BME280;65085;46.718;20.136;2023-02-02T03:22:58;100520.72;;;4.76;71.50
76166;BME280;65085;46.718;20.136;2023-02-02T03:26:01;100532.69;;;4.67;71.33
76166;BME280;65085;46.718;20.136;2023-02-02T03:29:03;100524.50;;;4.63;71.29
76166;BME280;65085;46.718;20.136;2023-02-02T03:32:06;100505.56;;;4.60;71.63
76166;BME280;65085;46.718;20.136;2023-02-02T03:35:10;100520.59;;;4.61;70.82
76166;BME280;65085;46.718;20.136;2023-02-02T03:38:13;100523.03;;;4.66;71.54
76166;BME280;65085;46.718;20.136;2023-02-02T03:41:16;100505.91;;;4.70;71.35
76166;BME280;65085;46.718;20.136;2023-02-02T03:44:18;100493.56;;;4.69;72.00
76166;BME280;65085;46.718;20.136;2023-02-02T03:47:21;100494.38;;;4.70;71.64
76166;BME280;65085;46.718;20.136;2023-02-02T03:50:25;100495.59;;;4.72;72.31
76166;BME280;65085;46.718;20.136;2023-02-02T03:53:28;100497.06;;;4.70;72.73
76166;BME280;65085;46.718;20.136;2023-02-02T03:56:30;100499.31;;;4.68;72.90
76166;BME280;65085;46.718;20.136;2023-02-02T03:59:33;100490.75;;;4.66;73.25
76166;BME280;65085;46.718;20.136;2023-02-02T04:02:36;100496.38;;;4.61;73.41
76166;BME280;65085;46.718;20.136;2023-02-02T04:05:40;100494.31;;;4.58;73.71
76166;BME280;65085;46.718;20.136;2023-02-02T04:08:43;100508.16;;;4.68;73.73
76166;BME280;65085;46.718;20.136;2023-02-02T04:11:46;100514.19;;;4.65;74.03
76166;BME280;65085;46.718;20.136;2023-02-02T04:14:48;100498.38;;;4.64;74.39
76166;BME280;65085;46.718;20.136;2023-02-02T04:17:51;100512.16;;;4.62;74.80
76166;BME280;65085;46.718;20.136;2023-02-02T04:21:00;100510.59;;;4.61;74.54
76166;BME280;65085;46.718;20.136;2023-02-02T04:24:03;100531.34;;;4.61;75.29
76166;BME280;65085;46.718;20.136;2023-02-02T04:27:06;100536.47;;;4.54;75.71
76166;BME280;65085;46.718;20.136;2023-02-02T04:30:10;100520.53;;;4.49;75.55
76166;BME280;65085;46.718;20.136;2023-02-02T04:33:13;100536.91;;;4.44;76.01
76166;BME280;65085;46.718;20.136;2023-02-02T04:36:17;100542.72;;;4.46;76.09
76166;BME280;65085;46.718;20.136;2023-02-02T04:39:20;100543.03;;;4.44;75.90
76166;BME280;65085;46.718;20.136;2023-02-02T04:42:22;100527.13;;;4.39;76.73
76166;BME280;65085;46.718;20.136;2023-02-02T04:45:25;100524.78;;;4.38;76.11
76166;BME280;65085;46.718;20.136;2023-02-02T04:48:28;100553.09;;;4.35;76.62
76166;BME280;65085;46.718;20.136;2023-02-02T04:51:34;100550.28;;;4.32;76.65
76166;BME280;65085;46.718;20.136;2023-02-02T04:54:38;100561.59;;;4.25;76.51
76166;BME280;65085;46.718;20.136;2023-02-02T04:57:41;100558.31;;;4.20;77.13
76166;BME280;65085;46.718;20.136;2023-02-02T05:00:44;100564.69;;;4.15;76.72
76166;BME280;65085;46.718;20.136;2023-02-02T05:03:48;100581.25;;;4.17;76.91
76166;BME280;65085;46.718;20.136;2023-02-02T05:06:52;100581.59;;;4.16;76.86
76166;BME280;65085;46.718;20.136;2023-02-02T05:09:55;100563.16;;;4.06;77.73
76166;BME280;65085;46.718;20.136;2023-02-02T05:12:58;100573.34;;;4.00;78.12
76166;BME280;65085;46.718;20.136;2023-02-02T05:16:01;100594.88;;;3.92;77.93
76166;BME280;65085;46.718;20.136;2023-02-02T05:19:04;100588.97;;;3.78;78.75
76166;BME280;65085;46.718;20.136;2023-02-02T05:22:08;100568.03;;;3.63;79.09
76166;BME280;65085;46.718;20.136;2023-02-02T05:25:11;100583.91;;;3.56;79.52
76166;BME280;65085;46.718;20.136;2023-02-02T05:28:13;100592.94;;;3.51;79.68
76166;BME280;65085;46.718;20.136;2023-02-02T05:31:16;100599.59;;;3.45;79.76
76166;BME280;65085;46.718;20.136;2023-02-02T05:34:19;100600.41;;;3.38;80.33
76166;BME280;65085;46.718;20.136;2023-02-02T05:37:23;100591.41;;;3.33;80.59
76166;BME280;65085;46.718;20.136;2023-02-02T05:40:26;100595.44;;;3.19;81.20
76166;BME280;65085;46.718;20.136;2023-02-02T05:43:30;100582.22;;;3.06;81.53
76166;BME280;65085;46.718;20.136;2023-02-02T05:46:33;100591.88;;;2.98;81.89
76166;BME280;65085;46.718;20.136;2023-02-02T05:49:36;100590.75;;;2.99;82.05
76166;BME280;65085;46.718;20.136;2023-02-02T05:52:41;100603.09;;;2.92;82.39
76166;BME280;65085;46.718;20.136;2023-02-02T05:55:44;100606.59;;;2.75;82.74
76166;BME280;65085;46.718;20.136;2023-02-02T05:58:47;100607.56;;;2.71;83.52
76166;BME280;65085;46.718;20.136;2023-02-02T06:01:51;100607.88;;;2.61;83.61
76166;BME280;65085;46.718;20.136;2023-02-02T06:04:54;100601.91;;;2.55;83.80
76166;BME280;65085;46.718;20.136;2023-02-02T06:07:58;100615.47;;;2.50;83.67
76166;BME280;65085;46.718;20.136;2023-02-02T06:11:07;100629.38;;;2.52;83.89
76166;BME280;65085;46.718;20.136;2023-02-02T06:14:10;100638.19;;;2.44;84.35
76166;BME280;65085;46.718;20.136;2023-02-02T06:17:13;100630.94;;;2.36;84.51
76166;BME280;65085;46.718;20.136;2023-02-02T06:20:16;100628.25;;;2.36;84.61
76166;BME280;65085;46.718;20.136;2023-02-02T06:23:23;100635.03;;;2.34;84.78
76166;BME280;65085;46.718;20.136;2023-02-02T06:26:26;100643.53;;;2.36;84.79
76166;BME280;65085;46.718;20.136;2023-02-02T06:29:29;100639.78;;;2.28;84.77
76166;BME280;65085;46.718;20.136;2023-02-02T06:32:32;100649.53;;;2.41;84.49
76166;BME280;65085;46.718;20.136;2023-02-02T06:35:35;100655.69;;;2.42;84.47
76166;BME280;65085;46.718;20.136;2023-02-02T06:38:40;100662.31;;;2.53;84.37
76166;BME280;65085;46.718;20.136;2023-02-02T06:41:42;100674.94;;;2.61;83.93
76166;BME280;65085;46.718;20.136;2023-02-02T06:44:48;100680.75;;;2.63;83.37
76166;BME280;65085;46.718;20.136;2023-02-02T06:47:50;100680.31;;;2.69;83.02
76166;BME280;65085;46.718;20.136;2023-02-02T06:50:57;100674.13;;;2.86;82.10
76166;BME280;65085;46.718;20.136;2023-02-02T06:54:05;100681.06;;;3.04;81.23
76166;BME280;65085;46.718;20.136;2023-02-02T06:57:08;100681.63;;;3.18;80.25
76166;BME280;65085;46.718;20.136;2023-02-02T07:00:12;100684.56;;;3.41;79.13
76166;BME280;65085;46.718;20.136;2023-02-02T07:03:15;100688.00;;;3.59;78.58
76166;BME280;65085;46.718;20.136;2023-02-02T07:06:21;100674.53;;;3.67;77.63
76166;BME280;65085;46.718;20.136;2023-02-02T07:09:26;100683.34;;;3.76;77.12
76166;BME280;65085;46.718;20.136;2023-02-02T07:12:28;100682.81;;;3.83;76.85
76166;BME280;65085;46.718;20.136;2023-02-02T07:15:32;100675.34;;;3.88;76.68
76166;BME280;65085;46.718;20.136;2023-02-02T07:18:35;100678.50;;;3.90;76.48
76166;BME280;65085;46.718;20.136;2023-02-02T07:21:41;100680.63;;;4.05;75.92
76166;BME280;65085;46.718;20.136;2023-02-02T07:24:45;100670.16;;;4.12;75.38
76166;BME280;65085;46.718;20.136;2023-02-02T07:27:51;100679.75;;;4.22;74.82
76166;BME280;65085;46.718;20.136;2023-02-02T07:30:54;100693.94;;;4.31;73.96
76166;BME280;65085;46.718;20.136;2023-02-02T07:33:57;100686.72;;;4.43;73.43
76166;BME280;65085;46.718;20.136;2023-02-02T07:37:00;100678.59;;;4.72;72.93
76166;BME280;65085;46.718;20.136;2023-02-02T07:40:09;100674.19;;;5.00;71.57
76166;BME280;65085;46.718;20.136;2023-02-02T07:43:12;100668.81;;;5.57;69.63
76166;BME280;65085;46.718;20.136;2023-02-02T07:46:16;100665.09;;;5.73;67.92
76166;BME280;65085;46.718;20.136;2023-02-02T07:49:19;100676.00;;;6.25;67.46
76166;BME280;65085;46.718;20.136;2023-02-02T07:52:22;100678.22;;;6.35;66.19
76166;BME280;65085;46.718;20.136;2023-02-02T07:55:26;100674.75;;;6.74;65.14
76166;BME280;65085;46.718;20.136;2023-02-02T07:58:29;100683.53;;;6.71;64.59
76166;BME280;65085;46.718;20.136;2023-02-02T08:01:32;100683.94;;;6.85;64.00
76166;BME280;65085;46.718;20.136;2023-02-02T08:04:35;100688.81;;;6.79;63.98
76166;BME280;65085;46.718;20.136;2023-02-02T08:07:40;100694.69;;;6.96;63.99
76166;BME280;65085;46.718;20.136;2023-02-02T08:10:47;100694.44;;;7.44;62.46
76166;BME280;65085;46.718;20.136;2023-02-02T08:13:51;100695.03;;;7.38;62.31
76166;BME280;65085;46.718;20.136;2023-02-02T08:16:55;100704.50;;;7.75;60.13
76166;BME280;65085;46.718;20.136;2023-02-02T08:19:58;100701.09;;;7.78;59.46
76166;BME280;65085;46.718;20.136;2023-02-02T08:23:01;100712.41;;;8.14;59.57
76166;BME280;65085;46.718;20.136;2023-02-02T08:26:09;100714.75;;;7.69;59.62
76166;BME280;65085;46.718;20.136;2023-02-02T08:29:12;100691.59;;;8.18;58.59
76166;BME280;65085;46.718;20.136;2023-02-02T08:32:18;100692.88;;;7.74;58.85
76166;BME280;65085;46.718;20.136;2023-02-02T08:35:21;100683.84;;;8.32;58.78
76166;BME280;65085;46.718;20.136;2023-02-02T08:38:25;100698.69;;;8.57;57.19
76166;BME280;65085;46.718;20.136;2023-02-02T08:41:29;100696.28;;;8.71;56.66
76166;BME280;65085;46.718;20.136;2023-02-02T08:44:32;100690.66;;;8.99;56.27
76166;BME280;65085;46.718;20.136;2023-02-02T08:47:55;100687.25;;;8.64;56.57
76166;BME280;65085;46.718;20.136;2023-02-02T08:51:17;100705.06;;;9.03;55.53
76166;BME280;65085;46.718;20.136;2023-02-02T08:54:21;100705.84;;;10.12;53.44
76166;BME280;65085;46.718;20.136;2023-02-02T08:57:26;100710.47;;;10.63;51.34
76166;BME280;65085;46.718;20.136;2023-02-02T09:00:31;100714.84;;;9.71;51.95
76166;BME280;65085;46.718;20.136;2023-02-02T09:03:34;100719.78;;;9.88;51.42
76166;BME280;65085;46.718;20.136;2023-02-02T09:06:40;100723.84;;;10.01;50.70
76166;BME280;65085;46.718;20.136;2023-02-02T09:09:43;100727.75;;;10.23;51.01
76166;BME280;65085;46.718;20.136;2023-02-02T09:12:47;100721.47;;;10.74;49.90
76166;BME280;65085;46.718;20.136;2023-02-02T09:15:50;100723.00;;;10.71;48.99
76166;BME280;65085;46.718;20.136;2023-02-02T09:18:54;100728.53;;;10.78;48.34
76166;BME280;65085;46.718;20.136;2023-02-02T09:21:57;100730.84;;;10.51;47.86
76166;BME280;65085;46.718;20.136;2023-02-02T09:25:00;100724.97;;;11.40;47.69
76166;BME280;65085;46.718;20.136;2023-02-02T09:28:04;100743.56;;;11.35;45.41
76166;BME280;65085;46.718;20.136;2023-02-02T09:31:09;100728.72;;;12.05;45.99
76166;BME280;65085;46.718;20.136;2023-02-02T09:34:13;100745.41;;;12.51;44.35
76166;BME280;65085;46.718;20.136;2023-02-02T09:37:16;100737.53;;;12.39;44.96
76166;BME280;65085;46.718;20.136;2023-02-02T09:40:19;100735.09;;;12.91;43.34
76166;BME280;65085;46.718;20.136;2023-02-02T09:43:36;100721.72;;;13.65;40.89
76166;BME280;65085;46.718;20.136;2023-02-02T09:46:52;100725.88;;;13.13;41.15
76166;BME280;65085;46.718;20.136;2023-02-02T09:50:03;100721.19;;;13.17;40.95
76166;BME280;65085;46.718;20.136;2023-02-02T09:53:14;100716.63;;;13.67;40.50
76166;BME280;65085;46.718;20.136;2023-02-02T09:56:24;100714.19;;;13.16;41.67
76166;BME280;65085;46.718;20.136;2023-02-02T09:59:33;100710.78;;;13.68;39.53
76166;BME280;65085;46.718;20.136;2023-02-02T10:02:39;100722.91;;;14.16;38.63
76166;BME280;65085;46.718;20.136;2023-02-02T10:06:48;100719.38;;;14.09;38.73
76166;BME280;65085;46.718;20.136;2023-02-02T10:09:57;100722.88;;;13.95;39.13
76166;BME280;65085;46.718;20.136;2023-02-02T10:13:05;100729.72;;;13.02;40.66
76166;BME280;65085;46.718;20.136;2023-02-02T10:16:18;100722.63;;;12.87;40.24
76166;BME280;65085;46.718;20.136;2023-02-02T10:19:25;100718.78;;;12.27;42.50
76166;BME280;65085;46.718;20.136;2023-02-02T10:22:32;100721.84;;;12.83;41.69
76166;BME280;65085;46.718;20.136;2023-02-02T10:25:36;100720.91;;;12.61;41.84
76166;BME280;65085;46.718;20.136;2023-02-02T10:29:00;100719.75;;;13.51;39.08
76166;BME280;65085;46.718;20.136;2023-02-02T10:33:44;100676.47;;;14.02;39.85
76166;BME280;65085;46.718;20.136;2023-02-02T10:37:55;100712.28;;;13.41;39.28
76166;BME280;65085;46.718;20.136;2023-02-02T10:41:27;100713.00;;;13.07;39.07
76166;BME280;65085;46.718;20.136;2023-02-02T10:45:01;100694.69;;;13.14;39.70
76166;BME280;65085;46.718;20.136;2023-02-02T10:48:22;100695.16;;;13.44;37.57
76166;BME280;65085;46.718;20.136;2023-02-02T10:51:31;100703.69;;;14.68;36.47
76166;BME280;65085;46.718;20.136;2023-02-02T10:54:59;100703.00;;;14.33;36.81
76166;BME280;65085;46.718;20.136;2023-02-02T10:58:19;100704.53;;;14.38;36.69
76166;BME280;65085;46.718;20.136;2023-02-02T11:01:24;100695.91;;;13.27;38.91
76166;BME280;65085;46.718;20.136;2023-02-02T11:04:31;100707.25;;;11.53;43.06
76166;BME280;65085;46.718;20.136;2023-02-02T11:07:56;100698.13;;;12.22;43.35
76166;BME280;65085;46.718;20.136;2023-02-02T11:11:09;100700.38;;;12.81;40.43
76166;BME280;65085;46.718;20.136;2023-02-02T11:14:16;100689.69;;;12.41;41.17
76166;BME280;65085;46.718;20.136;2023-02-02T11:17:22;100690.59;;;12.66;41.19
76166;BME280;65085;46.718;20.136;2023-02-02T11:20:34;100682.78;;;12.00;41.38
76166;BME280;65085;46.718;20.136;2023-02-02T11:23:40;100685.78;;;12.42;40.82
76166;BME280;65085;46.718;20.136;2023-02-02T11:26:53;100689.47;;;12.13;40.42
76166;BME280;65085;46.718;20.136;2023-02-02T11:29:58;100690.13;;;11.96;42.24
76166;BME280;65085;46.718;20.136;2023-02-02T11:33:20;100682.31;;;11.48;43.60
76166;BME280;65085;46.718;20.136;2023-02-02T11:36:28;100683.94;;;11.16;44.14
76166;BME280;65085;46.718;20.136;2023-02-02T11:39:31;100686.66;;;10.53;44.53
76166;BME280;65085;46.718;20.136;2023-02-02T11:42:34;100695.41;;;11.72;44.55
76166;BME280;65085;46.718;20.136;2023-02-02T11:45:40;100690.56;;;11.18;43.29
76166;BME280;65085;46.718;20.136;2023-02-02T11:48:49;100688.50;;;9.72;46.04
76166;BME280;65085;46.718;20.136;2023-02-02T11:51:57;100696.69;;;9.53;47.87
76166;BME280;65085;46.718;20.136;2023-02-02T11:55:01;100698.34;;;9.38;47.93
76166;BME280;65085;46.718;20.136;2023-02-02T11:58:21;100677.75;;;9.34;48.88
76166;BME280;65085;46.718;20.136;2023-02-02T12:01:30;100670.53;;;9.00;48.37
76166;BME280;65085;46.718;20.136;2023-02-02T12:04:33;100677.00;;;9.14;47.87
76166;BME280;65085;46.718;20.136;2023-02-02T12:07:38;100669.53;;;9.08;50.21
76166;BME280;65085;46.718;20.136;2023-02-02T12:10:47;100664.03;;;9.46;47.19
76166;BME280;65085;46.718;20.136;2023-02-02T12:14:01;100660.81;;;12.33;41.42
76166;BME280;65085;46.718;20.136;2023-02-02T12:20:38;100649.47;;;13.10;38.03
76166;BME280;65085;46.718;20.136;2023-02-02T12:23:56;100654.53;;;13.01;38.10
76166;BME280;65085;46.718;20.136;2023-02-02T12:27:15;100655.31;;;13.12;38.49
76166;BME280;65085;46.718;20.136;2023-02-02T12:30:26;100651.31;;;12.78;39.30
76166;BME280;65085;46.718;20.136;2023-02-02T12:33:37;100651.34;;;12.85;38.08
76166;BME280;65085;46.718;20.136;2023-02-02T12:36:49;100652.75;;;12.58;39.14
76166;BME280;65085;46.718;20.136;2023-02-02T12:40:06;100651.50;;;13.44;37.32
76166;BME280;65085;46.718;20.136;2023-02-02T12:43:22;100648.38;;;13.60;36.05
76166;BME280;65085;46.718;20.136;2023-02-02T12:46:36;100653.28;;;12.88;38.73
76166;BME280;65085;46.718;20.136;2023-02-02T12:49:51;100663.72;;;11.53;40.66
76166;BME280;65085;46.718;20.136;2023-02-02T12:53:10;100657.28;;;10.33;43.98
76166;BME280;65085;46.718;20.136;2023-02-02T12:56:23;100665.44;;;9.59;45.68
76166;BME280;65085;46.718;20.136;2023-02-02T12:59:45;100663.19;;;9.64;46.69
76166;BME280;65085;46.718;20.136;2023-02-02T13:03:04;100666.81;;;9.98;44.92
76166;BME280;65085;46.718;20.136;2023-02-02T13:06:26;100662.22;;;9.53;46.28
76166;BME280;65085;46.718;20.136;2023-02-02T13:09:37;100659.81;;;9.48;46.66
76166;BME280;65085;46.718;20.136;2023-02-02T13:12:49;100657.94;;;9.30;47.04
76166;BME280;65085;46.718;20.136;2023-02-02T13:15:57;100668.75;;;9.07;48.23
76166;BME280;65085;46.718;20.136;2023-02-02T13:19:04;100673.94;;;9.16;49.04
76166;BME280;65085;46.718;20.136;2023-02-02T13:22:14;100675.31;;;9.06;49.63
76166;BME280;65085;46.718;20.136;2023-02-02T13:25:23;100684.75;;;8.93;50.07
76166;BME280;65085;46.718;20.136;2023-02-02T13:28:35;100671.25;;;8.78;50.32
76166;BME280;65085;46.718;20.136;2023-02-02T13:31:43;100687.44;;;8.55;50.11
76166;BME280;65085;46.718;20.136;2023-02-02T13:34:49;100687.03;;;8.38;50.82
76166;BME280;65085;46.718;20.136;2023-02-02T13:38:00;100693.28;;;8.07;51.27
76166;BME280;65085;46.718;20.136;2023-02-02T13:41:06;100700.28;;;7.93;51.96
76166;BME280;65085;46.718;20.136;2023-02-02T13:44:20;100685.00;;;8.00;52.96
76166;BME280;65085;46.718;20.136;2023-02-02T13:47:32;100698.16;;;8.17;52.87
76166;BME280;65085;46.718;20.136;2023-02-02T13:50:46;100694.41;;;8.22;52.11
76166;BME280;65085;46.718;20.136;2023-02-02T13:54:16;100691.81;;;7.94;50.99
76166;BME280;65085;46.718;20.136;2023-02-02T13:57:36;100694.00;;;8.04;50.95
76166;BME280;65085;46.718;20.136;2023-02-02T14:00:46;100697.16;;;7.91;51.65
76166;BME280;65085;46.718;20.136;2023-02-02T14:03:52;100694.72;;;7.86;51.82
76166;BME280;65085;46.718;20.136;2023-02-02T14:06:57;100712.16;;;7.88;52.07
76166;BME280;65085;46.718;20.136;2023-02-02T14:10:01;100706.56;;;7.97;52.57
76166;BME280;65085;46.718;20.136;2023-02-02T14:13:14;100712.50;;;7.87;52.84
76166;BME280;65085;46.718;20.136;2023-02-02T14:16:57;100716.00;;;7.87;52.57
76166;BME280;65085;46.718;20.136;2023-02-02T14:20:01;100724.28;;;7.94;51.77
76166;BME280;65085;46.718;20.136;2023-02-02T14:23:49;100701.53;;;7.64;52.80
76166;BME280;65085;46.718;20.136;2023-02-02T14:31:22;100736.22;;;7.62;53.96
76166;BME280;65085;46.718;20.136;2023-02-02T14:34:32;100741.63;;;7.62;53.27
76166;BME280;65085;46.718;20.136;2023-02-02T14:37:46;100730.38;;;7.45;53.40
76166;BME280;65085;46.718;20.136;2023-02-02T14:40:55;100740.03;;;7.46;54.15
76166;BME280;65085;46.718;20.136;2023-02-02T14:44:02;100742.50;;;7.51;53.73
76166;BME280;65085;46.718;20.136;2023-02-02T14:47:41;100749.09;;;8.27;52.28
76166;BME280;65085;46.718;20.136;2023-02-02T14:50:49;100743.81;;;8.69;50.06
76166;BME280;65085;46.718;20.136;2023-02-02T14:53:55;100734.22;;;9.09;49.25
76166;BME280;65085;46.718;20.136;2023-02-02T14:57:05;100731.09;;;9.07;48.88
76166;BME280;65085;46.718;20.136;2023-02-02T15:00:23;100738.47;;;8.72;50.70
76166;BME280;65085;46.718;20.136;2023-02-02T15:03:45;100735.09;;;8.60;51.27
76166;BME280;65085;46.718;20.136;2023-02-02T15:06:49;100735.34;;;8.36;51.13
76166;BME280;65085;46.718;20.136;2023-02-02T15:09:54;100743.66;;;7.81;52.64
76166;BME280;65085;46.718;20.136;2023-02-02T15:13:02;100747.75;;;7.75;53.38
76166;BME280;65085;46.718;20.136;2023-02-02T15:16:13;100762.28;;;7.55;53.20
76166;BME280;65085;46.718;20.136;2023-02-02T15:19:27;100757.44;;;7.33;54.55
76166;BME280;65085;46.718;20.136;2023-02-02T15:22:35;100765.84;;;7.16;54.65
76166;BME280;65085;46.718;20.136;2023-02-02T15:25:44;100757.09;;;7.07;54.97
76166;BME280;65085;46.718;20.136;2023-02-02T15:28:52;100770.00;;;6.86;55.89
76166;BME280;65085;46.718;20.136;2023-02-02T15:31:56;100769.59;;;6.72;56.41
76166;BME280;65085;46.718;20.136;2023-02-02T15:35:04;100781.75;;;6.66;56.92
76166;BME280;65085;46.718;20.136;2023-02-02T15:38:13;100781.75;;;6.66;56.95
76166;BME280;65085;46.718;20.136;2023-02-02T15:41:20;100795.56;;;6.65;57.30
76166;BME280;65085;46.718;20.136;2023-02-02T15:44:26;100789.84;;;6.66;56.99
76166;BME280;65085;46.718;20.136;2023-02-02T15:47:32;100782.22;;;6.56;57.67
76166;BME280;65085;46.718;20.136;2023-02-02T15:50:43;100795.59;;;6.53;57.94
76166;BME280;65085;46.718;20.136;2023-02-02T15:53:48;100794.13;;;6.43;57.54
76166;BME280;65085;46.718;20.136;2023-02-02T15:56:54;100811.56;;;6.46;58.38
76166;BME280;65085;46.718;20.136;2023-02-02T15:59:59;100814.72;;;6.36;58.80
76166;BME280;65085;46.718;20.136;2023-02-02T16:03:04;100814.84;;;6.39;59.16
76166;BME280;65085;46.718;20.136;2023-02-02T16:06:10;100820.44;;;6.34;58.54
76166;BME280;65085;46.718;20.136;2023-02-02T16:09:20;100826.97;;;6.33;59.03
76166;BME280;65085;46.718;20.136;2023-02-02T16:12:25;100828.31;;;6.27;59.18
76166;BME280;65085;46.718;20.136;2023-02-02T16:15:28;100836.72;;;6.26;59.96
76166;BME280;65085;46.718;20.136;2023-02-02T16:18:34;100828.06;;;6.20;59.27
76166;BME280;65085;46.718;20.136;2023-02-02T16:21:43;100831.09;;;6.19;60.38
76166;BME280;65085;46.718;20.136;2023-02-02T16:24:49;100840.69;;;6.16;60.32
76166;BME280;65085;46.718;20.136;2023-02-02T16:27:53;100845.16;;;6.12;61.27
76166;BME280;65085;46.718;20.136;2023-02-02T16:30:58;100840.91;;;6.23;59.45